Time;durP1;ratioP1;P1;durP2;ratioP2;P2;SDS_P1;SDS_P2;PMS_P1;PMS_P2;Temp;Humidity;BMP_temperature;BMP_pressure;BME280_temperature;BME280_humidity;BME280_pressure;Samples;Min_cycle;Max_cycle;Signal;HPM_P1;HPM_P2
2021/01/10 00:00:46;;;;;;;23.33;12.23;;;-0.10;76.70;;;;;;5000471;28;20035;-63
2021/01/10 00:03:13;;;;;;;23.40;12.93;;;-0.10;76.70;;;;;;4999705;28;20038;-64
2021/01/10 00:05:41;;;;;;;24.33;12.32;;;0.00;76.70;;;;;;5000545;28;20445;-63
2021/01/10 00:08:06;;;;;;;24.77;13.30;;;0.00;76.70;;;;;;4994449;28;20026;-61
2021/01/10 00:10:32;;;;;;;23.02;12.07;;;0.00;76.70;;;;;;4995060;28;20091;-63
2021/01/10 00:12:59;;;;;;;26.35;15.52;;;0.00;76.60;;;;;;5000568;28;20034;-62
2021/01/10 00:15:25;;;;;;;22.98;13.38;;;0.00;76.60;;;;;;5001151;28;20030;-63
2021/01/10 00:17:51;;;;;;;24.65;12.60;;;0.00;76.60;;;;;;5001739;28;20069;-63
2021/01/10 00:20:17;;;;;;;24.13;12.07;;;0.00;76.70;;;;;;4997100;28;20073;-62
2021/01/10 00:22:44;;;;;;;23.98;12.70;;;0.00;76.70;;;;;;4997549;28;20584;-63
2021/01/10 00:25:12;;;;;;;23.38;12.90;;;0.00;76.70;;;;;;5001157;28;20048;-62
2021/01/10 00:27:39;;;;;;;25.45;13.27;;;0.00;76.70;;;;;;5001262;28;20069;-63
2021/01/10 00:30:10;;;;;;;23.75;12.75;;;0.00;76.70;;;;;;4999320;28;20505;-62
2021/01/10 00:32:36;;;;;;;21.23;12.23;;;0.00;76.70;;;;;;4999128;28;20083;-63
2021/01/10 00:35:03;;;;;;;25.10;13.45;;;0.00;76.70;;;;;;5001382;28;20038;-63
2021/01/10 00:37:28;;;;;;;23.98;12.57;;;0.00;76.80;;;;;;5001315;28;20029;-63
2021/01/10 00:39:54;;;;;;;22.70;13.13;;;0.00;76.70;;;;;;5000341;28;20034;-63
2021/01/10 00:42:20;;;;;;;24.20;13.25;;;0.00;76.90;;;;;;5001006;28;20128;-62
2021/01/10 00:44:47;;;;;;;21.30;12.15;;;0.10;76.90;;;;;;5000901;28;20077;-63
2021/01/10 00:47:17;;;;;;;23.05;12.35;;;0.10;76.90;;;;;;5001286;28;20032;-62
2021/01/10 00:49:44;;;;;;;25.73;12.93;;;0.00;76.70;;;;;;5015142;28;20149;-63
2021/01/10 00:52:10;;;;;;;19.35;11.32;;;0.10;76.70;;;;;;4999938;28;20030;-62
2021/01/10 00:54:36;;;;;;;23.92;12.32;;;0.10;76.70;;;;;;5001074;28;20037;-63
2021/01/10 00:57:02;;;;;;;24.27;12.50;;;0.10;76.60;;;;;;5000095;28;20406;-63
2021/01/10 00:59:27;;;;;;;24.08;12.38;;;0.10;76.60;;;;;;5000677;28;20115;-62
2021/01/10 01:01:53;;;;;;;23.40;13.15;;;0.10;76.40;;;;;;5000478;28;20049;-63
2021/01/10 01:04:19;;;;;;;22.55;12.02;;;0.10;76.40;;;;;;5000250;28;20030;-63
2021/01/10 01:06:46;;;;;;;21.58;12.50;;;0.10;76.40;;;;;;4998490;28;20038;-62
2021/01/10 01:09:11;;;;;;;19.92;11.35;;;0.10;76.40;;;;;;4999968;28;20037;-64
2021/01/10 01:11:39;;;;;;;21.55;11.50;;;0.10;76.40;;;;;;4999216;28;20077;-63
2021/01/10 01:14:06;;;;;;;24.23;12.40;;;0.10;76.40;;;;;;5001418;28;20030;-62
2021/01/10 01:16:32;;;;;;;24.85;12.65;;;0.10;76.30;;;;;;4998621;28;20022;-63
2021/01/10 01:18:58;;;;;;;22.38;12.48;;;0.00;76.20;;;;;;5001374;28;20032;-63
2021/01/10 01:21:24;;;;;;;21.08;11.95;;;0.00;76.20;;;;;;4998696;28;20616;-61
2021/01/10 01:23:50;;;;;;;21.60;12.20;;;0.00;76.30;;;;;;5001323;28;20049;-63
2021/01/10 01:26:20;;;;;;;22.38;11.98;;;0.00;76.40;;;;;;5000204;28;20657;-61
2021/01/10 01:28:47;;;;;;;24.02;12.93;;;-0.10;76.40;;;;;;4983030;28;20091;-63
2021/01/10 01:31:14;;;;;;;23.65;12.43;;;-0.10;76.40;;;;;;4997034;28;20034;-63
2021/01/10 01:33:41;;;;;;;22.65;11.25;;;-0.10;76.40;;;;;;5000248;28;20034;-63
2021/01/10 01:36:11;;;;;;;23.00;12.48;;;-0.10;77.30;;;;;;5000653;28;20041;-63
2021/01/10 01:38:40;;;;;;;21.92;12.05;;;-0.10;76.50;;;;;;4998902;28;20413;-61
2021/01/10 01:41:07;;;;;;;20.13;11.73;;;-0.20;76.60;;;;;;4999400;28;20405;-63
2021/01/10 01:43:37;;;;;;;21.15;11.95;;;-0.10;76.70;;;;;;5000537;28;20523;-62
2021/01/10 01:46:04;;;;;;;22.73;12.20;;;-0.10;76.70;;;;;;4999152;28;20066;-63
2021/01/10 01:48:30;;;;;;;24.17;12.73;;;-0.10;76.70;;;;;;4999714;28;20030;-62
2021/01/10 01:51:00;;;;;;;22.83;13.00;;;-0.10;76.80;;;;;;4998143;28;20107;-62
2021/01/10 01:53:27;;;;;;;23.63;13.32;;;-0.10;76.90;;;;;;5000134;28;20036;-63
2021/01/10 01:55:54;;;;;;;26.60;13.75;;;-0.10;76.90;;;;;;4998998;28;20092;-62
2021/01/10 01:58:21;;;;;;;25.95;14.32;;;-0.10;76.90;;;;;;4999200;28;20038;-62
2021/01/10 02:00:47;;;;;;;24.67;13.57;;;-0.10;76.90;;;;;;4998054;28;20048;-64
2021/01/10 02:03:34;;;;;;;26.58;13.32;;;-0.10;77.00;;;;;;5000768;28;20041;-63
2021/01/10 02:06:06;;;;;;;25.55;13.73;;;-0.20;77.10;;;;;;4997726;28;20026;-62
2021/01/10 02:08:35;;;;;;;27.77;13.90;;;-0.20;77.00;;;;;;4999958;28;20113;-62
2021/01/10 02:11:02;;;;;;;25.33;14.00;;;-0.20;77.00;;;;;;4995828;28;20116;-62
2021/01/10 02:13:31;;;;;;;27.48;13.93;;;-0.10;77.10;;;;;;4999404;28;20158;-63
2021/01/10 02:15:59;;;;;;;27.45;14.27;;;-0.20;77.00;;;;;;4997696;28;20037;-62
2021/01/10 02:18:26;;;;;;;27.20;14.18;;;-0.20;77.00;;;;;;4999269;28;20405;-63
2021/01/10 02:20:54;;;;;;;26.13;13.10;;;-0.20;77.10;;;;;;4998205;28;20072;-62
2021/01/10 02:23:21;;;;;;;24.25;13.18;;;-0.20;77.10;;;;;;5014316;28;20044;-63
2021/01/10 02:25:48;;;;;;;27.25;14.18;;;-0.20;77.10;;;;;;4999566;28;20047;-63
2021/01/10 02:28:19;;;;;;;26.33;13.75;;;-0.20;77.20;;;;;;4997874;28;20061;-62
2021/01/10 02:30:45;;;;;;;27.38;13.75;;;-0.20;77.10;;;;;;5010802;28;20040;-63
2021/01/10 02:33:31;;;;;;;26.33;14.02;;;-0.20;77.10;;;;;;4999024;28;20022;-62
2021/01/10 02:35:57;;;;;;;29.40;15.50;;;-0.20;77.30;;;;;;4999533;28;20034;-63
2021/01/10 02:38:43;;;;;;;28.67;14.23;;;-0.20;77.10;;;;;;4999353;28;20039;-63
2021/01/10 02:41:14;;;;;;;29.42;13.68;;;-0.20;77.30;;;;;;4996840;28;20501;-63
2021/01/10 02:44:00;;;;;;;24.98;13.85;;;-0.20;77.10;;;;;;4996423;28;20037;-62
2021/01/10 02:46:28;;;;;;;24.55;13.65;;;-0.20;77.20;;;;;;4998728;28;20105;-63
2021/01/10 02:48:54;;;;;;;25.60;13.27;;;-0.20;77.20;;;;;;4997471;28;20417;-62
2021/01/10 02:51:19;;;;;;;23.55;12.93;;;-0.10;77.30;;;;;;4997982;28;20402;-63
2021/01/10 02:53:45;;;;;;;27.10;13.90;;;-0.20;77.20;;;;;;4998961;28;20027;-61
2021/01/10 02:56:11;;;;;;;24.10;13.32;;;-0.20;77.20;;;;;;4998022;28;20049;-63
2021/01/10 02:58:39;;;;;;;23.48;12.90;;;-0.10;77.30;;;;;;4996435;28;20088;-63
2021/01/10 03:01:08;;;;;;;24.63;13.00;;;-0.10;77.20;;;;;;4998003;28;20034;-63
2021/01/10 03:03:35;;;;;;;23.92;13.23;;;-0.10;77.20;;;;;;4998569;28;20049;-63
2021/01/10 03:06:01;;;;;;;26.42;14.25;;;-0.10;78.00;;;;;;4997406;28;20038;-62
2021/01/10 03:08:28;;;;;;;25.27;14.25;;;-0.10;77.10;;;;;;4998541;28;20030;-64
2021/01/10 03:10:54;;;;;;;22.88;12.70;;;-0.10;77.20;;;;;;4996205;28;20514;-63
2021/01/10 03:13:21;;;;;;;24.15;13.35;;;-0.10;77.00;;;;;;4997911;28;20065;-64
2021/01/10 03:15:46;;;;;;;27.67;13.93;;;-0.10;77.10;;;;;;4998618;28;20502;-63
2021/01/10 03:18:21;;;;;;;25.48;13.75;;;-0.10;77.10;;;;;;4998990;28;20072;-63
2021/01/10 03:20:50;;;;;;;25.88;14.40;;;-0.10;77.10;;;;;;4997255;28;20038;-62
2021/01/10 03:23:16;;;;;;;24.42;12.93;;;-0.10;77.10;;;;;;4998415;28;20038;-63
2021/01/10 03:25:42;;;;;;;24.00;13.05;;;-0.10;77.00;;;;;;4999357;28;20041;-63
2021/01/10 03:28:08;;;;;;;24.17;13.07;;;-0.10;77.10;;;;;;5001816;28;20890;-63
2021/01/10 03:30:34;;;;;;;24.70;12.82;;;-0.20;77.00;;;;;;5000151;28;20030;-63
2021/01/10 03:33:01;;;;;;;25.02;12.75;;;-0.10;77.10;;;;;;5003315;28;20052;-63
2021/01/10 03:35:27;;;;;;;23.77;12.38;;;-0.10;77.10;;;;;;5002684;28;20449;-63
2021/01/10 03:37:53;;;;;;;24.60;13.32;;;-0.20;77.10;;;;;;5003104;28;20035;-64
2021/01/10 03:40:19;;;;;;;27.75;13.50;;;-0.10;77.20;;;;;;5002503;28;20030;-63
2021/01/10 03:42:45;;;;;;;23.30;12.90;;;-0.10;77.30;;;;;;5001236;28;20046;-63
2021/01/10 03:45:14;;;;;;;24.60;13.52;;;-0.10;77.30;;;;;;5002765;28;20041;-63
2021/01/10 03:47:40;;;;;;;22.60;12.30;;;-0.10;77.20;;;;;;5002546;28;20041;-63
2021/01/10 03:50:07;;;;;;;20.75;11.75;;;-0.10;77.10;;;;;;5002067;28;20030;-64
2021/01/10 03:52:33;;;;;;;22.85;12.43;;;-0.10;77.10;;;;;;4999790;28;20054;-63
2021/01/10 03:54:59;;;;;;;21.67;11.60;;;-0.10;77.10;;;;;;5001913;28;20038;-63
2021/01/10 03:57:25;;;;;;;21.15;11.77;;;-0.10;77.10;;;;;;4999839;28;20117;-63
2021/01/10 03:59:50;;;;;;;21.60;11.77;;;0.00;78.00;;;;;;5001061;28;20035;-63
2021/01/10 04:02:16;;;;;;;23.90;12.35;;;0.00;77.00;;;;;;5001811;28;20033;-61
2021/01/10 04:04:41;;;;;;;20.90;11.80;;;0.00;76.90;;;;;;5000663;28;20119;-62
2021/01/10 04:07:07;;;;;;;20.15;11.65;;;0.00;76.80;;;;;;5001788;28;20042;-63
2021/01/10 04:09:34;;;;;;;19.15;10.55;;;0.10;76.80;;;;;;5001325;28;20398;-63
2021/01/10 04:11:59;;;;;;;20.52;11.27;;;0.10;76.70;;;;;;5000267;28;20054;-63
2021/01/10 04:14:25;;;;;;;20.95;11.57;;;0.10;76.70;;;;;;4998000;28;20080;-63
2021/01/10 04:16:52;;;;;;;20.08;10.90;;;0.20;76.70;;;;;;5002304;28;20490;-63
2021/01/10 04:19:18;;;;;;;23.20;11.57;;;0.20;77.60;;;;;;4999855;28;20172;-62
2021/01/10 04:21:44;;;;;;;19.60;10.88;;;0.20;76.60;;;;;;5001174;28;20125;-63
2021/01/10 04:24:09;;;;;;;19.25;10.85;;;0.20;76.60;;;;;;5002264;28;20498;-62
2021/01/10 04:26:44;;;;;;;19.08;10.07;;;0.20;76.40;;;;;;5000150;28;20061;-62
2021/01/10 04:29:09;;;;;;;;;;;0.20;76.30;;;;;;4998633;28;20038;-63
2021/01/10 04:31:35;;;;;;;17.52;9.93;;;0.30;76.20;;;;;;5000246;28;19917;-62
2021/01/10 04:34:01;;;;;;;17.38;9.80;;;0.30;76.10;;;;;;5016157;28;20409;-62
2021/01/10 04:36:30;;;;;;;17.45;9.80;;;0.30;75.90;;;;;;5000708;28;20242;-63
2021/01/10 04:38:56;;;;;;;14.90;8.85;;;0.30;75.70;;;;;;5000642;28;20088;-63
2021/01/10 04:41:24;;;;;;;15.80;9.38;;;0.30;75.70;;;;;;5000965;28;20053;-63
2021/01/10 04:43:50;;;;;;;14.77;9.13;;;0.20;75.70;;;;;;5001290;28;20069;-61
2021/01/10 04:46:17;;;;;;;15.40;9.23;;;0.30;75.80;;;;;;5000749;28;20041;-63
2021/01/10 04:48:43;;;;;;;16.27;9.48;;;0.30;75.70;;;;;;4997712;28;20072;-63
2021/01/10 04:51:14;;;;;;;16.20;9.15;;;0.30;75.70;;;;;;5000236;28;20042;-63
2021/01/10 04:53:42;;;;;;;16.20;9.18;;;0.30;75.70;;;;;;5000058;28;20058;-62
2021/01/10 04:56:10;;;;;;;17.42;9.63;;;0.30;75.70;;;;;;4999072;28;20592;-63
2021/01/10 04:58:37;;;;;;;16.83;9.00;;;0.30;75.60;;;;;;4999602;28;20565;-62
2021/01/10 05:01:04;;;;;;;16.42;9.75;;;0.30;75.50;;;;;;4998017;28;20402;-63
2021/01/10 05:03:36;;;;;;;15.73;9.25;;;0.40;75.50;;;;;;5000845;28;20065;-63
2021/01/10 05:06:01;;;;;;;16.42;9.23;;;0.40;75.30;;;;;;5000689;28;20083;-63
2021/01/10 05:08:28;;;;;;;14.82;9.20;;;0.30;75.30;;;;;;4999540;28;20125;-63
2021/01/10 05:10:53;;;;;;;16.50;9.63;;;0.30;76.20;;;;;;4998876;28;20062;-63
2021/01/10 05:13:19;;;;;;;17.23;9.85;;;0.30;75.30;;;;;;5000741;28;20069;-63
2021/01/10 05:15:44;;;;;;;16.48;9.95;;;0.30;75.40;;;;;;5000571;28;20124;-63
2021/01/10 05:18:11;;;;;;;18.33;10.60;;;0.30;75.40;;;;;;4999661;28;20042;-63
2021/01/10 05:20:36;;;;;;;19.60;9.93;;;0.30;75.30;;;;;;4999273;28;20073;-63
2021/01/10 05:23:02;;;;;;;17.58;9.85;;;0.30;75.20;;;;;;5000042;28;20073;-63
2021/01/10 05:25:29;;;;;;;18.75;9.63;;;0.20;75.20;;;;;;5000622;28;20026;-62
2021/01/10 05:27:56;;;;;;;18.02;10.75;;;0.20;75.30;;;;;;4997763;28;20026;-63
2021/01/10 05:30:33;;;;;;;17.25;10.02;;;0.20;75.30;;;;;;4997839;28;20506;-63
2021/01/10 05:33:08;;;;;;;17.45;10.18;;;0.20;75.20;;;;;;4999768;28;20045;-63
2021/01/10 05:35:56;;;;;;;17.05;9.98;;;0.20;75.20;;;;;;5000749;28;20113;-63
2021/01/10 05:38:28;;;;;;;18.02;10.25;;;0.20;75.10;;;;;;5000138;28;20069;-63
2021/01/10 05:40:56;;;;;;;19.52;10.73;;;0.10;74.90;;;;;;4997650;28;20405;-62
2021/01/10 05:43:23;;;;;;;18.70;10.40;;;0.10;74.90;;;;;;5000220;28;20085;-63
2021/01/10 05:45:49;;;;;;;17.92;10.35;;;0.00;74.90;;;;;;5000677;28;20513;-63
2021/01/10 05:48:17;;;;;;;17.88;10.25;;;0.00;75.00;;;;;;4997746;28;20518;-64
2021/01/10 05:50:48;;;;;;;18.45;10.38;;;0.00;74.90;;;;;;4999443;28;20048;-62
2021/01/10 05:53:21;;;;;;;18.85;10.70;;;0.00;74.80;;;;;;5000198;28;20033;-63
2021/01/10 05:55:51;;;;;;;17.90;10.23;;;0.00;74.70;;;;;;4998078;28;20038;-63
2021/01/10 05:58:16;;;;;;;20.00;10.60;;;-0.10;74.50;;;;;;4998299;28;20059;-63
2021/01/10 06:00:42;;;;;;;18.50;10.32;;;-0.10;74.40;;;;;;4998004;28;20076;-63
2021/01/10 06:03:09;;;;;;;23.35;11.23;;;-0.10;74.30;;;;;;4999377;28;20128;-63
2021/01/10 06:05:36;;;;;;;20.52;11.15;;;-0.20;74.10;;;;;;5000013;28;20057;-63
2021/01/10 06:08:01;;;;;;;18.23;10.07;;;-0.20;74.10;;;;;;4999808;28;20125;-63
2021/01/10 06:10:29;;;;;;;22.30;10.30;;;-0.30;74.00;;;;;;4996594;28;20144;-63
2021/01/10 06:13:02;;;;;;;19.92;11.57;;;-0.30;74.00;;;;;;4997331;28;20027;-63
2021/01/10 06:15:31;;;;;;;19.45;10.85;;;-0.40;73.80;;;;;;4999584;28;20089;-63
2021/01/10 06:18:00;;;;;;;20.08;10.55;;;-0.40;73.80;;;;;;4999833;28;20088;-62
2021/01/10 06:20:31;;;;;;;20.05;10.65;;;-0.50;73.70;;;;;;4996374;28;20065;-63
2021/01/10 06:22:58;;;;;;;17.70;10.10;;;-0.60;73.80;;;;;;4999854;28;20046;-63
2021/01/10 06:25:27;;;;;;;15.90;9.40;;;-0.50;73.90;;;;;;4999746;28;20026;-63
2021/01/10 06:28:15;;;;;;;19.77;10.77;;;-0.60;73.80;;;;;;4999347;28;20044;-64
2021/01/10 06:30:53;;;;;;;20.55;11.00;;;-0.60;73.60;;;;;;4995622;28;20049;-64
2021/01/10 06:33:27;;;;;;;18.77;10.70;;;-0.70;73.60;;;;;;4995209;28;20145;-63
2021/01/10 06:35:52;;;;;;;21.08;10.95;;;-0.70;73.60;;;;;;4997869;28;20176;-63
2021/01/10 06:38:23;;;;;;;17.05;9.82;;;-0.80;73.60;;;;;;4996128;28;20680;-63
2021/01/10 06:41:21;;;;;;;21.13;11.20;;;-0.80;73.60;;;;;;4995507;28;20034;-63
2021/01/10 06:43:55;;;;;;;19.58;10.77;;;-0.80;73.40;;;;;;4995629;28;20041;-59
2021/01/10 06:46:21;;;;;;;13.52;8.27;;;-0.90;73.50;;;;;;4994116;28;20543;-63
2021/01/10 06:48:47;;;;;;;20.45;10.45;;;-0.90;73.50;;;;;;4992958;28;20045;-63
2021/01/10 06:51:14;;;;;;;20.05;10.10;;;-0.90;73.50;;;;;;4995467;28;20109;-62
2021/01/10 06:53:40;;;;;;;18.33;10.68;;;-0.90;73.40;;;;;;4995816;28;20090;-63
2021/01/10 06:56:06;;;;;;;20.67;11.05;;;-1.00;73.50;;;;;;4995622;28;20042;-63
2021/01/10 06:58:32;;;;;;;19.05;10.95;;;-1.00;73.50;;;;;;4993325;28;20572;-62
2021/01/10 07:00:58;;;;;;;19.83;10.95;;;-1.00;73.60;;;;;;4993702;28;20042;-63
2021/01/10 07:03:27;;;;;;;22.88;11.73;;;-1.10;73.60;;;;;;4983131;28;20064;-63
2021/01/10 07:05:56;;;;;;;19.65;11.00;;;-1.10;74.50;;;;;;4994283;28;20038;-63
2021/01/10 07:08:31;;;;;;;22.17;11.88;;;-1.10;73.80;;;;;;4996135;28;20070;-63
2021/01/10 07:11:17;;;;;;;20.70;11.38;;;-1.20;73.90;;;;;;4994857;28;20030;-63
2021/01/10 07:13:42;;;;;;;19.52;10.63;;;-1.20;74.00;;;;;;4992863;28;20134;-62
2021/01/10 07:16:25;;;;;;;19.45;10.52;;;-1.20;74.10;;;;;;4991694;28;20506;-63
2021/01/10 07:18:55;;;;;;;24.20;12.48;;;-1.20;74.30;;;;;;4990926;28;20038;-63
2021/01/10 07:21:47;;;;;;;21.77;11.63;;;-1.20;74.50;;;;;;4987473;28;20094;-63
2021/01/10 07:24:12;;;;;;;21.08;11.63;;;-1.20;74.60;;;;;;4982248;28;20037;-64
2021/01/10 07:26:49;;;;;;;23.10;12.30;;;-1.20;74.70;;;;;;4983944;28;20045;-63
2021/01/10 07:29:46;;;;;;;21.10;11.63;;;-1.20;74.90;;;;;;4983637;28;20084;-64
2021/01/10 07:32:19;;;;;;;23.25;12.55;;;-1.20;75.10;;;;;;4984315;28;20038;-63
2021/01/10 07:34:44;;;;;;;22.67;13.07;;;-1.20;75.20;;;;;;4982498;28;20034;-63
2021/01/10 07:37:31;;;;;;;19.95;11.07;;;-1.20;75.30;;;;;;4985646;28;20552;-64
2021/01/10 07:40:04;;;;;;;21.90;12.63;;;-1.20;75.50;;;;;;4986257;28;20065;-64
2021/01/10 07:42:35;;;;;;;21.77;12.50;;;-1.20;75.50;;;;;;4986965;28;20044;-64
2021/01/10 07:45:19;;;;;;;23.02;14.00;;;-1.10;75.80;;;;;;4984464;28;20041;-64
2021/01/10 07:47:46;;;;;;;24.02;12.60;;;-1.10;75.80;;;;;;4985784;28;20034;-64
2021/01/10 07:50:14;;;;;;;22.55;12.40;;;-1.10;75.90;;;;;;4983375;28;20572;-63
2021/01/10 07:52:45;;;;;;;24.85;13.55;;;-1.10;75.90;;;;;;4984818;28;20041;-64
2021/01/10 07:55:18;;;;;;;21.95;11.70;;;-1.00;75.90;;;;;;4985974;28;20391;-64
2021/01/10 07:57:47;;;;;;;22.13;12.20;;;-1.00;75.90;;;;;;4985663;28;20063;-63
2021/01/10 08:00:16;;;;;;;24.25;12.35;;;-1.00;75.90;;;;;;4987268;28;20034;-63
2021/01/10 08:02:57;;;;;;;23.75;13.15;;;-0.90;76.00;;;;;;4985561;28;20057;-63
2021/01/10 08:05:39;;;;;;;22.23;12.30;;;-0.90;76.20;;;;;;4989072;28;20041;-63
2021/01/10 08:08:04;;;;;;;23.75;13.10;;;-0.90;76.10;;;;;;4987266;28;20624;-63
2021/01/10 08:10:53;;;;;;;22.48;12.80;;;-0.80;76.10;;;;;;4984245;28;20497;-62
2021/01/10 08:13:46;;;;;;;25.63;13.45;;;-0.80;76.20;;;;;;4986672;28;21903;-63
2021/01/10 08:16:33;;;;;;;27.67;14.32;;;-0.80;76.30;;;;;;4990968;28;20042;-63
2021/01/10 08:19:03;;;;;;;26.65;12.75;;;-0.80;76.40;;;;;;4987092;28;20048;-62
2021/01/10 08:21:30;;;;;;;23.75;12.55;;;-0.70;76.40;;;;;;4990687;28;20037;-63
2021/01/10 08:23:57;;;;;;;25.30;13.00;;;-0.80;76.40;;;;;;4987550;28;20046;-63
2021/01/10 08:26:23;;;;;;;25.20;12.98;;;-0.80;76.40;;;;;;4987766;28;20037;-63
2021/01/10 08:28:53;;;;;;;22.55;12.10;;;-0.80;76.40;;;;;;4989855;28;20070;-63
2021/01/10 08:31:24;;;;;;;25.35;11.93;;;-0.80;76.40;;;;;;4995608;28;20034;-63
2021/01/10 08:34:13;;;;;;;24.98;12.57;;;-0.70;76.50;;;;;;5006186;28;20042;-63
2021/01/10 08:36:38;;;;;;;24.95;12.48;;;-0.70;76.70;;;;;;4999216;28;20041;-63
2021/01/10 08:39:09;;;;;;;24.73;12.57;;;-0.70;76.50;;;;;;5000572;28;20044;-64
2021/01/10 08:41:49;;;;;;;26.30;11.93;;;-0.70;76.60;;;;;;5000258;28;20034;-63
2021/01/10 08:44:18;;;;;;;25.38;12.48;;;-0.70;76.50;;;;;;5000563;28;20037;-64
2021/01/10 08:46:47;;;;;;;24.73;11.98;;;-0.70;76.50;;;;;;4999742;28;20035;-63
2021/01/10 08:49:16;;;;;;;30.60;15.25;;;-0.70;76.60;;;;;;4999978;28;20038;-63
2021/01/10 08:51:43;;;;;;;23.33;12.10;;;-0.70;76.70;;;;;;4999372;28;20026;-64
2021/01/10 08:54:13;;;;;;;25.50;11.80;;;-0.70;76.70;;;;;;5000947;28;20044;-63
2021/01/10 08:56:40;;;;;;;26.80;14.48;;;-0.70;76.90;;;;;;4998972;28;20529;-64
2021/01/10 08:59:07;;;;;;;28.52;12.98;;;-0.60;76.80;;;;;;4999024;28;20085;-63
2021/01/10 09:01:32;;;;;;;24.40;12.38;;;-0.60;76.90;;;;;;4998809;28;20034;-63
2021/01/10 09:03:59;;;;;;;24.90;12.48;;;-0.60;77.00;;;;;;4999473;28;20040;-64
2021/01/10 09:06:42;;;;;;;23.55;12.05;;;-0.60;77.00;;;;;;5000816;28;20501;-63
2021/01/10 09:09:31;;;;;;;24.70;12.23;;;-0.50;77.00;;;;;;4999679;28;20522;-63
2021/01/10 09:12:22;;;;;;;23.33;11.70;;;-0.60;77.00;;;;;;4999506;28;20054;-63
2021/01/10 09:15:01;;;;;;;24.58;12.30;;;-0.50;77.00;;;;;;4999646;28;20045;-63
2021/01/10 09:17:49;;;;;;;24.55;12.32;;;-0.50;76.90;;;;;;5001785;28;20058;-63
2021/01/10 09:20:21;;;;;;;20.63;10.65;;;-0.50;77.10;;;;;;5001494;28;20586;-63
2021/01/10 09:22:47;;;;;;;20.63;10.95;;;-0.50;77.00;;;;;;5000822;28;20046;-63
2021/01/10 09:25:15;;;;;;;20.77;10.55;;;-0.50;76.90;;;;;;4996940;28;20033;-63
2021/01/10 09:28:05;;;;;;;19.40;10.70;;;-0.40;76.90;;;;;;4999680;28;20042;-64
2021/01/10 09:30:31;;;;;;;20.77;11.25;;;-0.40;76.90;;;;;;4998708;28;20421;-63
2021/01/10 09:32:57;;;;;;;20.15;11.27;;;-0.40;76.70;;;;;;4999999;28;20549;-63
2021/01/10 09:35:24;;;;;;;19.98;10.63;;;-0.40;76.70;;;;;;5004988;28;20034;-63
2021/01/10 09:37:49;;;;;;;22.23;10.82;;;-0.40;76.70;;;;;;5000147;28;20060;-63
2021/01/10 09:40:17;;;;;;;19.60;10.48;;;-0.30;76.70;;;;;;5001562;28;20037;-63
2021/01/10 09:42:45;;;;;;;19.95;10.20;;;-0.40;76.70;;;;;;4999882;28;20038;-63
2021/01/10 09:45:12;;;;;;;19.85;11.02;;;-0.30;76.70;;;;;;5000449;28;20038;-64
2021/01/10 09:47:38;;;;;;;17.52;10.18;;;-0.30;76.70;;;;;;4999871;28;20383;-63
2021/01/10 09:50:15;;;;;;;18.98;10.30;;;-0.30;76.60;;;;;;4999482;28;20042;-63
2021/01/10 09:52:52;;;;;;;21.05;11.27;;;-0.30;76.70;;;;;;4997651;28;20094;-63
2021/01/10 09:55:27;;;;;;;20.50;10.98;;;-0.30;76.70;;;;;;4997761;28;20053;-63
2021/01/10 09:57:54;;;;;;;19.02;10.50;;;-0.30;76.70;;;;;;4999948;28;20042;-63
2021/01/10 10:00:20;;;;;;;19.58;11.13;;;-0.30;76.70;;;;;;4998658;28;20041;-61
2021/01/10 10:02:47;;;;;;;19.35;10.25;;;-0.30;76.70;;;;;;4995352;28;20053;-63
2021/01/10 10:05:16;;;;;;;20.05;10.82;;;-0.30;76.70;;;;;;5000538;28;20038;-64
2021/01/10 10:07:45;;;;;;;18.88;10.50;;;-0.20;76.80;;;;;;4999629;28;20053;-63
2021/01/10 10:10:19;;;;;;;19.92;10.82;;;-0.20;76.60;;;;;;4997837;28;20038;-63
2021/01/10 10:12:59;;;;;;;20.42;11.05;;;-0.20;76.60;;;;;;4997962;28;20578;-63
2021/01/10 10:15:51;;;;;;;18.63;10.65;;;-0.20;76.60;;;;;;4997702;28;20038;-64
2021/01/10 10:18:26;;;;;;;21.08;11.95;;;-0.20;76.60;;;;;;4996729;28;20124;-63
2021/01/10 10:20:51;;;;;;;;;;;-0.20;76.60;;;;;;4992863;28;20096;-60
2021/01/10 10:23:18;;;;;;;71.85;37.60;;;-0.10;76.70;;;;;;4999454;28;19925;-63
2021/01/10 10:25:47;;;;;;;25.45;14.35;;;-0.10;76.40;;;;;;4997193;28;20512;-63
2021/01/10 10:28:13;;;;;;;20.50;11.38;;;-0.10;76.60;;;;;;4997946;28;20417;-63
2021/01/10 10:30:39;;;;;;;20.60;10.93;;;-0.10;76.70;;;;;;4999174;28;20034;-63
2021/01/10 10:33:06;;;;;;;18.67;11.05;;;0.00;76.70;;;;;;4999787;28;20365;-63
2021/01/10 10:35:32;;;;;;;20.58;11.27;;;0.00;76.60;;;;;;5001145;28;20030;-61
2021/01/10 10:37:58;;;;;;;18.08;10.70;;;0.00;76.60;;;;;;4998905;28;20039;-62
2021/01/10 10:40:23;;;;;;;20.00;10.95;;;0.10;76.60;;;;;;4999935;28;20041;-63
2021/01/10 10:42:49;;;;;;;18.60;11.13;;;0.10;76.60;;;;;;4999799;28;20563;-63
2021/01/10 10:45:16;;;;;;;22.02;11.50;;;0.20;76.60;;;;;;4998782;28;20052;-64
2021/01/10 10:47:41;;;;;;;21.25;11.80;;;0.20;76.40;;;;;;4997038;28;20344;-63
2021/01/10 10:50:08;;;;;;;19.05;10.52;;;0.30;76.50;;;;;;4999726;28;20417;-63
2021/01/10 10:52:34;;;;;;;21.35;11.30;;;0.30;76.40;;;;;;4997263;28;20075;-63
2021/01/10 10:55:00;;;;;;;21.13;11.00;;;0.30;76.20;;;;;;4994979;28;20554;-63
2021/01/10 10:57:25;;;;;;;18.40;11.60;;;0.40;76.20;;;;;;4998399;28;20055;-62
2021/01/10 10:59:51;;;;;;;19.98;11.50;;;0.40;76.20;;;;;;4997801;28;20059;-62
2021/01/10 11:02:17;;;;;;;18.15;10.93;;;0.50;76.10;;;;;;4992759;28;20114;-62
2021/01/10 11:04:45;;;;;;;19.73;11.70;;;0.50;76.20;;;;;;4996617;28;20124;-63
2021/01/10 11:07:11;;;;;;;23.98;13.27;;;0.50;76.10;;;;;;4999730;28;20034;-62
2021/01/10 11:09:36;;;;;;;21.13;13.18;;;0.60;76.00;;;;;;4998829;28;20036;-62
2021/01/10 11:12:03;;;;;;;20.67;12.88;;;0.60;76.00;;;;;;4997829;28;20044;-62
2021/01/10 11:14:28;;;;;;;21.55;12.52;;;0.60;76.20;;;;;;4999245;28;20522;-62
2021/01/10 11:16:54;;;;;;;20.13;11.90;;;0.70;76.20;;;;;;4999560;28;20452;-63
2021/01/10 11:19:21;;;;;;;22.00;12.43;;;0.70;76.00;;;;;;4999486;28;20033;-62
2021/01/10 11:21:49;;;;;;;20.02;11.50;;;0.70;76.00;;;;;;4999066;28;20401;-63
2021/01/10 11:24:16;;;;;;;18.98;10.50;;;0.80;75.90;;;;;;5000138;28;20041;-62
2021/01/10 11:26:42;;;;;;;18.52;10.90;;;0.80;75.70;;;;;;4997148;28;20061;-63
2021/01/10 11:29:08;;;;;;;18.27;10.52;;;0.90;75.50;;;;;;4999099;28;20061;-63
2021/01/10 11:31:35;;;;;;;22.13;10.73;;;0.90;75.20;;;;;;4999208;28;20062;-62
2021/01/10 11:34:02;;;;;;;19.27;10.75;;;0.90;75.00;;;;;;4997899;28;20046;-62
2021/01/10 11:36:28;;;;;;;17.20;9.90;;;0.90;74.80;;;;;;4999089;28;20042;-63
2021/01/10 11:38:55;;;;;;;19.38;11.30;;;0.80;74.70;;;;;;4999528;28;20061;-62
2021/01/10 11:41:21;;;;;;;18.88;10.60;;;0.80;74.60;;;;;;4999514;28;20424;-62
2021/01/10 11:43:48;;;;;;;19.50;11.30;;;0.80;74.60;;;;;;4999312;28;20517;-62
2021/01/10 11:46:15;;;;;;;23.90;11.98;;;0.80;74.70;;;;;;4998513;28;20293;-63
2021/01/10 11:48:41;;;;;;;19.45;11.43;;;0.80;74.80;;;;;;5002270;28;20084;-63
2021/01/10 11:51:08;;;;;;;23.00;13.18;;;0.80;74.80;;;;;;5003541;28;20046;-63
2021/01/10 11:53:33;;;;;;;19.98;11.60;;;0.80;74.80;;;;;;5002358;28;20084;-62
2021/01/10 11:56:00;;;;;;;19.50;11.27;;;0.90;74.80;;;;;;5002381;28;20038;-62
2021/01/10 11:58:26;;;;;;;21.17;12.27;;;0.90;74.70;;;;;;5002356;28;20532;-62
2021/01/10 12:00:52;;;;;;;22.70;12.35;;;0.80;74.70;;;;;;4993863;28;20146;-62
2021/01/10 12:03:19;;;;;;;24.50;13.85;;;0.80;74.70;;;;;;4998753;28;20038;-62
2021/01/10 12:05:45;;;;;;;21.33;12.05;;;0.90;74.80;;;;;;4999078;28;20037;-62
2021/01/10 12:08:11;;;;;;;21.40;11.85;;;0.90;74.80;;;;;;4997407;28;20046;-62
2021/01/10 12:10:36;;;;;;;19.80;11.43;;;0.90;74.80;;;;;;5003831;28;20034;-62
2021/01/10 12:13:05;;;;;;;20.02;11.60;;;1.00;74.70;;;;;;5001603;28;20030;-62
2021/01/10 12:15:33;;;;;;;24.20;12.32;;;1.00;74.60;;;;;;5000422;28;20030;-61
2021/01/10 12:18:03;;;;;;;21.17;11.95;;;0.90;74.50;;;;;;5002004;28;20031;-62
2021/01/10 12:20:29;;;;;;;19.80;11.77;;;1.00;74.50;;;;;;5002035;28;20656;-62
2021/01/10 12:22:55;;;;;;;22.77;11.93;;;1.00;74.40;;;;;;5001486;28;20113;-62
2021/01/10 12:25:21;;;;;;;23.70;12.38;;;1.00;74.40;;;;;;5002244;28;20402;-60
2021/01/10 12:27:47;;;;;;;21.52;12.32;;;1.00;74.30;;;;;;5002434;28;20038;-62
2021/01/10 12:30:13;;;;;;;21.98;11.63;;;1.00;74.30;;;;;;5002080;28;20494;-63
2021/01/10 12:32:39;;;;;;;23.42;12.43;;;1.00;74.30;;;;;;5001649;28;20134;-62
2021/01/10 12:35:08;;;;;;;22.10;12.13;;;1.00;74.30;;;;;;5002361;28;20117;-62
2021/01/10 12:37:34;;;;;;;20.92;12.20;;;1.00;74.20;;;;;;5001615;28;20034;-62
2021/01/10 12:40:01;;;;;;;21.55;12.48;;;1.10;74.40;;;;;;5002045;28;20042;-62
2021/01/10 12:42:27;;;;;;;22.90;12.48;;;1.10;74.50;;;;;;5000496;28;20504;-62